CheckWX is a tool to help pilots better visualize weather data.  It is not intended as a substitute for an official pre-flight weather briefing.

06:34:17 UTC

SCTN METAR
Chaitén Airport
Chaiten, Chile
Current

34 mins ago

SCTN 070600Z AUTO 10003KT 070V130 CAVOK 04/04 Q1024
Observed
Apr-7 @ 06:00 UTC
Wind
  • 100° at 3 KTS
Visibility
10,000+ meters
Flight Rules
VFR
Cloud Levels
  • Clear skies
Temperature
C / 39°F
Dewpoint
C / 39°F
Humidity
100%
Altimeter
30.24" Hg
Pressure
1023.92 hPa
Previous

2 hours ago

SCTN 070500Z AUTO 12004KT CAVOK 04/04 Q1024
Observed
Apr-7 @ 05:00 UTC
Wind
  • 120° at 4 KTS
Visibility
10,000+ meters
Flight Rules
VFR
Cloud Levels
  • Clear skies
Temperature
C / 39°F
Dewpoint
C / 39°F
Humidity
100%
Altimeter
30.24" Hg
Pressure
1023.92 hPa
Previous

3 hours ago

SCTN 070400Z AUTO 00000KT CAVOK 05/05 Q1025
Observed
Apr-7 @ 04:00 UTC
Visibility
10,000+ meters
Flight Rules
VFR
Cloud Levels
  • Clear skies
Temperature
C / 41°F
Dewpoint
C / 41°F
Humidity
100%
Altimeter
30.27" Hg
Pressure
1024.92 hPa